Time;durP1;ratioP1;P1;durP2;ratioP2;P2;SDS_P1;SDS_P2;PMS_P1;PMS_P2;Temp;Humidity;BMP_temperature;BMP_pressure;BME280_temperature;BME280_humidity;BME280_pressure;Samples;Min_cycle;Max_cycle;Signal;HPM_P1;HPM_P2
2021/09/25 00:00:30;;;;;;;28.40;6.07;;;;;;;;;;5064063;28;20083;-67
2021/09/25 00:02:58;;;;;;;25.88;6.72;;;;;;;;;;5060838;28;20060;-66
2021/09/25 00:05:26;;;;;;;24.75;6.63;;;;;;;;;;5063395;28;21995;-67
2021/09/25 00:07:52;;;;;;;27.42;7.20;;;;;;;;;;5065892;28;20044;-67
2021/09/25 00:10:18;;;;;;;19.88;5.53;;;;;;;;;;5064546;28;20492;-67
2021/09/25 00:12:45;;;;;;;28.77;6.53;;;;;;;;;;5061814;28;20071;-67
2021/09/25 00:15:11;;;;;;;27.08;7.50;;;;;;;;;;5063450;28;20462;-67
2021/09/25 00:17:37;;;;;;;19.63;6.20;;;;;;;;;;5063801;28;20049;-67
2021/09/25 00:20:04;;;;;;;24.15;7.30;;;;;;;;;;5063836;28;20040;-67
2021/09/25 00:22:30;;;;;;;25.58;6.22;;;;;;;;;;5063835;28;20040;-67
2021/09/25 00:24:56;;;;;;;21.00;6.72;;;;;;;;;;5059716;28;20041;-67
2021/09/25 00:27:24;;;;;;;26.27;7.07;;;;;;;;;;5062530;28;20347;-67
2021/09/25 00:29:50;;;;;;;23.85;7.38;;;;;;;;;;5063782;28;20063;-67
2021/09/25 00:32:16;;;;;;;23.00;8.18;;;;;;;;;;5060005;28;20037;-67
2021/09/25 00:34:42;;;;;;;26.40;7.97;;;;;;;;;;5060004;28;20048;-66
2021/09/25 00:37:09;;;;;;;29.17;8.57;;;;;;;;;;5065898;28;20048;-67
2021/09/25 00:39:35;;;;;;;21.27;7.78;;;;;;;;;;5066321;28;20086;-67
2021/09/25 00:42:01;;;;;;;26.85;8.45;;;;;;;;;;5060814;28;20052;-67
2021/09/25 00:44:27;;;;;;;22.92;8.20;;;;;;;;;;5064912;28;20077;-67
2021/09/25 00:46:54;;;;;;;23.67;7.38;;;;;;;;;;5064061;28;20049;-67
2021/09/25 00:49:21;;;;;;;31.58;8.70;;;;;;;;;;5047274;28;20487;-67
2021/09/25 00:51:48;;;;;;;22.92;7.35;;;;;;;;;;5065136;28;20124;-67
2021/09/25 00:54:14;;;;;;;27.67;8.32;;;;;;;;;;5063851;28;20049;-67
2021/09/25 00:56:43;;;;;;;28.13;8.18;;;;;;;;;;5062995;28;20395;-67
2021/09/25 00:59:09;;;;;;;30.30;8.98;;;;;;;;;;5067056;28;21678;-67
2021/09/25 01:01:36;;;;;;;27.52;7.88;;;;;;;;;;5065912;28;20132;-66
2021/09/25 01:04:02;;;;;;;35.75;8.85;;;;;;;;;;5065837;28;20044;-67
2021/09/25 01:06:28;;;;;;;24.52;8.30;;;;;;;;;;5088087;28;20510;-67
2021/09/25 01:08:54;;;;;;;23.77;8.23;;;;;;;;;;5084111;28;20135;-66
2021/09/25 01:11:21;;;;;;;28.85;9.15;;;;;;;;;;5064755;28;20051;-67
2021/09/25 01:13:47;;;;;;;34.10;9.68;;;;;;;;;;5086030;28;20032;-67
2021/09/25 01:16:13;;;;;;;31.27;9.82;;;;;;;;;;5067359;28;20036;-67
2021/09/25 01:18:39;;;;;;;29.08;9.15;;;;;;;;;;5066160;28;20056;-67
2021/09/25 01:21:07;;;;;;;25.45;9.07;;;;;;;;;;5068465;28;20480;-67
2021/09/25 01:23:33;;;;;;;22.20;9.23;;;;;;;;;;5067643;28;20139;-67
2021/09/25 01:26:00;;;;;;;28.35;10.02;;;;;;;;;;5083713;28;20036;-67
2021/09/25 01:28:27;;;;;;;23.50;9.18;;;;;;;;;;5085881;28;20127;-67
2021/09/25 01:30:53;;;;;;;23.50;9.32;;;;;;;;;;5064354;28;20496;-67
2021/09/25 01:33:30;;;;;;;27.00;9.85;;;;;;;;;;5069450;28;20147;-67
2021/09/25 01:35:56;;;;;;;18.25;8.73;;;;;;;;;;5068398;28;20120;-67
2021/09/25 01:38:23;;;;;;;28.90;10.13;;;;;;;;;;5086527;28;20157;-67
2021/09/25 01:40:50;;;;;;;27.08;9.73;;;;;;;;;;5083562;28;20119;-67
2021/09/25 01:43:16;;;;;;;26.42;9.35;;;;;;;;;;5073363;28;20044;-67
2021/09/25 01:45:43;;;;;;;28.30;9.98;;;;;;;;;;5085774;28;20182;-67
2021/09/25 01:48:10;;;;;;;27.40;9.82;;;;;;;;;;5087952;28;20051;-67
2021/09/25 01:50:37;;;;;;;20.95;9.07;;;;;;;;;;5067586;28;20040;-66
2021/09/25 01:53:03;;;;;;;31.80;10.43;;;;;;;;;;5068917;28;20048;-67
2021/09/25 01:55:29;;;;;;;31.02;11.20;;;;;;;;;;5064265;28;20049;-66
2021/09/25 01:57:55;;;;;;;25.67;10.45;;;;;;;;;;5066100;28;20140;-66
2021/09/25 02:00:24;;;;;;;28.60;10.93;;;;;;;;;;5063504;28;20053;-67
2021/09/25 02:02:50;;;;;;;28.73;9.77;;;;;;;;;;5067401;28;20048;-67
2021/09/25 02:05:17;;;;;;;28.42;9.65;;;;;;;;;;5065041;28;20043;-67
2021/09/25 02:07:45;;;;;;;34.60;11.27;;;;;;;;;;5065657;28;20056;-67
2021/09/25 02:10:11;;;;;;;25.65;10.52;;;;;;;;;;5065557;28;20036;-67
2021/09/25 02:12:38;;;;;;;26.77;10.57;;;;;;;;;;5063120;28;20124;-66
2021/09/25 02:15:05;;;;;;;33.90;12.23;;;;;;;;;;5064161;28;20039;-67
2021/09/25 02:17:31;;;;;;;27.95;11.55;;;;;;;;;;5065436;28;20037;-67
2021/09/25 02:19:57;;;;;;;31.70;11.52;;;;;;;;;;5065518;28;20052;-67
2021/09/25 02:22:24;;;;;;;27.67;10.68;;;;;;;;;;5064443;28;20044;-67
2021/09/25 02:24:50;;;;;;;33.40;12.00;;;;;;;;;;5062285;28;20083;-66
2021/09/25 02:27:16;;;;;;;24.83;10.80;;;;;;;;;;5063026;28;20040;-66
2021/09/25 02:29:42;;;;;;;30.02;10.48;;;;;;;;;;5066056;28;20041;-67
2021/09/25 02:32:09;;;;;;;27.15;11.45;;;;;;;;;;5064948;28;20044;-67
2021/09/25 02:34:35;;;;;;;35.33;10.82;;;;;;;;;;5066665;28;20492;-67
2021/09/25 02:37:02;;;;;;;29.63;11.88;;;;;;;;;;5066988;28;20040;-67
2021/09/25 02:39:28;;;;;;;31.58;10.80;;;;;;;;;;5064060;28;20032;-67
2021/09/25 02:41:55;;;;;;;30.85;11.48;;;;;;;;;;5066118;28;20052;-66
2021/09/25 02:44:21;;;;;;;25.17;10.77;;;;;;;;;;5065665;28;20056;-67
2021/09/25 02:46:48;;;;;;;33.97;11.23;;;;;;;;;;5065101;28;20071;-67
2021/09/25 02:49:15;;;;;;;33.88;12.27;;;;;;;;;;5064001;28;20040;-66
2021/09/25 02:51:41;;;;;;;27.00;11.15;;;;;;;;;;5066670;28;20492;-67
2021/09/25 02:54:07;;;;;;;28.48;11.13;;;;;;;;;;5065258;28;20093;-67
2021/09/25 02:56:34;;;;;;;35.00;11.15;;;;;;;;;;5080377;28;20116;-67
2021/09/25 02:59:00;;;;;;;24.70;9.60;;;;;;;;;;5064322;28;20384;-67
2021/09/25 03:01:26;;;;;;;28.50;10.68;;;;;;;;;;5086714;28;20105;-67
2021/09/25 03:03:54;;;;;;;20.60;9.80;;;;;;;;;;5065552;28;20047;-67
2021/09/25 03:06:22;;;;;;;27.50;9.88;;;;;;;;;;5066363;28;20036;-67
2021/09/25 03:08:48;;;;;;;27.38;10.07;;;;;;;;;;5069641;28;20055;-67
2021/09/25 03:11:14;;;;;;;23.38;9.73;;;;;;;;;;5085308;28;20055;-67
2021/09/25 03:13:40;;;;;;;38.75;10.45;;;;;;;;;;5085377;28;20472;-67
2021/09/25 03:16:07;;;;;;;24.30;9.10;;;;;;;;;;5066517;28;20131;-66
2021/09/25 03:18:33;;;;;;;30.38;10.23;;;;;;;;;;5083399;28;20047;-66
2021/09/25 03:20:59;;;;;;;27.55;9.38;;;;;;;;;;5063985;28;20048;-67
2021/09/25 03:23:25;;;;;;;20.75;9.32;;;;;;;;;;5067738;28;20071;-67
2021/09/25 03:25:52;;;;;;;29.83;11.10;;;;;;;;;;5081862;28;20032;-66
2021/09/25 03:28:18;;;;;;;31.83;11.05;;;;;;;;;;5085109;28;20131;-66
2021/09/25 03:30:44;;;;;;;29.90;10.45;;;;;;;;;;5083525;28;20055;-66
2021/09/25 03:33:11;;;;;;;22.98;9.98;;;;;;;;;;5066810;28;20056;-66
2021/09/25 03:35:37;;;;;;;30.73;11.27;;;;;;;;;;5083794;28;20051;-67
2021/09/25 03:38:03;;;;;;;34.50;12.30;;;;;;;;;;5084393;28;20052;-67
2021/09/25 03:40:30;;;;;;;38.88;13.90;;;;;;;;;;5082032;28;20448;-67
2021/09/25 03:42:56;;;;;;;33.70;11.55;;;;;;;;;;5086926;28;20083;-67
2021/09/25 03:45:22;;;;;;;32.95;11.98;;;;;;;;;;5085911;28;20031;-66
2021/09/25 03:47:52;;;;;;;40.03;12.05;;;;;;;;;;5085337;28;20475;-67
2021/09/25 03:50:18;;;;;;;38.67;11.80;;;;;;;;;;5065080;28;20052;-67
2021/09/25 03:52:44;;;;;;;34.05;11.70;;;;;;;;;;5067365;28;20047;-66
2021/09/25 03:55:10;;;;;;;37.05;11.82;;;;;;;;;;5061769;28;20080;-66
2021/09/25 03:57:36;;;;;;;30.70;11.15;;;;;;;;;;5062986;28;20059;-66
2021/09/25 04:00:03;;;;;;;45.63;12.70;;;;;;;;;;5061488;28;20059;-66
2021/09/25 04:02:29;;;;;;;36.17;11.57;;;;;;;;;;5065376;28;20163;-66
2021/09/25 04:04:55;;;;;;;31.38;11.52;;;;;;;;;;5061879;28;20052;-66
2021/09/25 04:07:21;;;;;;;39.08;12.13;;;;;;;;;;5065513;28;20040;-67
2021/09/25 04:09:48;;;;;;;25.83;11.32;;;;;;;;;;5059854;28;20052;-67
2021/09/25 04:12:14;;;;;;;26.63;11.57;;;;;;;;;;5067783;28;20045;-67
2021/09/25 04:14:40;;;;;;;37.92;12.02;;;;;;;;;;5072488;28;20395;-66
2021/09/25 04:17:06;;;;;;;39.72;13.00;;;;;;;;;;5067777;28;20044;-66
2021/09/25 04:19:32;;;;;;;31.58;10.27;;;;;;;;;;5069011;28;20040;-67
2021/09/25 04:21:58;;;;;;;33.30;12.30;;;;;;;;;;5067768;28;20060;-67
2021/09/25 04:24:25;;;;;;;27.20;10.52;;;;;;;;;;5069605;28;20139;-66
2021/09/25 04:26:51;;;;;;;29.67;11.07;;;;;;;;;;5068749;28;20087;-66
2021/09/25 04:29:17;;;;;;;32.20;11.57;;;;;;;;;;5066107;28;20037;-66
2021/09/25 04:31:46;;;;;;;26.65;10.98;;;;;;;;;;5064551;28;20105;-66
2021/09/25 04:34:13;;;;;;;33.25;11.07;;;;;;;;;;5069446;28;20045;-66
2021/09/25 04:36:40;;;;;;;30.42;10.00;;;;;;;;;;5070264;28;20453;-66
2021/09/25 04:39:07;;;;;;;30.38;10.90;;;;;;;;;;5070569;28;20048;-66
2021/09/25 04:41:33;;;;;;;28.95;11.57;;;;;;;;;;5072835;28;20059;-66
2021/09/25 04:43:59;;;;;;;30.65;11.02;;;;;;;;;;5067752;28;20399;-66
2021/09/25 04:46:26;;;;;;;36.30;11.88;;;;;;;;;;5066778;28;20049;-66
2021/09/25 04:48:52;;;;;;;28.25;11.40;;;;;;;;;;5073535;28;20075;-67
2021/09/25 04:51:18;;;;;;;34.20;12.38;;;;;;;;;;5069406;28;20067;-65
2021/09/25 04:53:45;;;;;;;28.00;11.75;;;;;;;;;;5071291;28;20036;-66
2021/09/25 04:56:11;;;;;;;29.38;11.43;;;;;;;;;;5082356;28;20620;-66
2021/09/25 04:58:38;;;;;;;32.75;11.63;;;;;;;;;;5078713;28;20104;-65
2021/09/25 05:01:05;;;;;;;34.70;13.07;;;;;;;;;;5093198;28;20043;-66
2021/09/25 05:03:33;;;;;;;29.17;12.27;;;;;;;;;;5071470;28;20058;-66
2021/09/25 05:06:00;;;;;;;24.55;11.10;;;;;;;;;;5071323;28;20369;-66
2021/09/25 05:08:27;;;;;;;31.92;11.80;;;;;;;;;;5064467;28;20131;-66
2021/09/25 05:10:53;;;;;;;28.95;12.13;;;;;;;;;;5040267;28;20084;-67
2021/09/25 05:13:19;;;;;;;37.42;11.68;;;;;;;;;;5047288;28;20043;-66
2021/09/25 05:15:45;;;;;;;31.52;11.43;;;;;;;;;;5030662;28;20055;-66
2021/09/25 05:18:12;;;;;;;28.80;11.32;;;;;;;;;;5031790;28;20045;-66
2021/09/25 05:20:38;;;;;;;30.02;10.50;;;;;;;;;;5047297;28;20048;-66
2021/09/25 05:23:04;;;;;;;33.00;12.82;;;;;;;;;;5030197;28;20048;-66
2021/09/25 05:25:30;;;;;;;35.28;13.10;;;;;;;;;;5043911;28;20056;-68
2021/09/25 05:27:56;;;;;;;34.00;12.48;;;;;;;;;;5023562;28;20060;-65
2021/09/25 05:30:22;;;;;;;26.60;12.82;;;;;;;;;;5041309;28;20094;-65
2021/09/25 05:32:48;;;;;;;38.20;14.27;;;;;;;;;;5043107;28;20041;-65
2021/09/25 05:35:15;;;;;;;37.72;14.40;;;;;;;;;;5024226;28;20144;-65
2021/09/25 05:37:41;;;;;;;43.58;15.88;;;;;;;;;;5041724;28;20053;-65
2021/09/25 05:40:07;;;;;;;36.13;13.82;;;;;;;;;;5044286;28;20068;-65
2021/09/25 05:42:33;;;;;;;32.55;14.85;;;;;;;;;;5031819;28;20044;-66
2021/09/25 05:45:00;;;;;;;36.38;14.68;;;;;;;;;;5044989;28;20100;-65
2021/09/25 05:47:26;;;;;;;35.10;15.00;;;;;;;;;;5044342;28;20110;-65
2021/09/25 05:49:52;;;;;;;31.15;13.48;;;;;;;;;;5044613;28;20116;-65
2021/09/25 05:52:19;;;;;;;35.92;14.30;;;;;;;;;;5044263;28;20053;-65
2021/09/25 05:54:45;;;;;;;39.55;15.75;;;;;;;;;;5028459;28;20053;-65
2021/09/25 05:57:11;;;;;;;31.90;13.95;;;;;;;;;;5046100;28;20068;-65
2021/09/25 05:59:38;;;;;;;40.88;15.27;;;;;;;;;;5042746;28;20481;-65
2021/09/25 06:02:04;;;;;;;37.88;15.77;;;;;;;;;;5044762;28;20041;-65
2021/09/25 06:04:32;;;;;;;33.50;15.15;;;;;;;;;;5046887;28;20060;-65
2021/09/25 06:06:58;;;;;;;37.10;15.43;;;;;;;;;;5025026;28;20139;-65
2021/09/25 06:09:25;;;;;;;35.28;14.52;;;;;;;;;;5046311;28;20076;-65
2021/09/25 06:11:51;;;;;;;38.45;15.80;;;;;;;;;;5047143;28;20112;-69
2021/09/25 06:14:18;;;;;;;30.98;14.75;;;;;;;;;;5045961;28;20041;-66
2021/09/25 06:16:44;;;;;;;41.42;15.75;;;;;;;;;;5045807;28;20481;-65
2021/09/25 06:19:11;;;;;;;36.78;13.93;;;;;;;;;;5044965;28;20463;-65
2021/09/25 06:21:37;;;;;;;32.72;13.40;;;;;;;;;;5042276;28;20374;-65
2021/09/25 06:24:03;;;;;;;33.03;13.93;;;;;;;;;;5024606;28;20275;-65
2021/09/25 06:26:29;;;;;;;34.08;14.63;;;;;;;;;;5028094;28;20390;-65
2021/09/25 06:28:56;;;;;;;36.00;14.30;;;;;;;;;;5026206;28;20126;-65
2021/09/25 06:31:22;;;;;;;32.47;15.25;;;;;;;;;;5026283;28;20124;-65
2021/09/25 06:33:48;;;;;;;34.65;15.13;;;;;;;;;;5026140;28;20045;-65
2021/09/25 06:36:15;;;;;;;47.55;13.95;;;;;;;;;;5046623;28;20045;-71
2021/09/25 06:38:41;;;;;;;36.53;13.63;;;;;;;;;;5024006;28;20053;-66
2021/09/25 06:41:07;;;;;;;40.72;14.68;;;;;;;;;;5041000;28;20157;-65
2021/09/25 06:43:33;;;;;;;35.10;13.18;;;;;;;;;;5040252;28;20106;-66
2021/09/25 06:46:00;;;;;;;27.90;12.73;;;;;;;;;;5039031;28;20181;-66
2021/09/25 06:48:26;;;;;;;34.35;12.70;;;;;;;;;;5041046;28;20044;-66
2021/09/25 06:50:52;;;;;;;34.63;13.10;;;;;;;;;;5043451;28;20037;-66
2021/09/25 06:53:19;;;;;;;30.27;12.32;;;;;;;;;;5023891;28;20048;-66
2021/09/25 06:55:45;;;;;;;34.15;13.75;;;;;;;;;;5040004;28;20041;-66
2021/09/25 06:58:11;;;;;;;27.52;12.20;;;;;;;;;;5023435;28;20515;-66
2021/09/25 07:00:38;;;;;;;32.78;12.88;;;;;;;;;;5021809;28;20518;-65
2021/09/25 07:03:04;;;;;;;28.77;11.57;;;;;;;;;;5037410;28;20044;-66
2021/09/25 07:05:30;;;;;;;30.65;11.43;;;;;;;;;;5036337;28;20478;-65
2021/09/25 07:07:56;;;;;;;28.17;11.90;;;;;;;;;;5037523;28;20063;-66
2021/09/25 07:10:22;;;;;;;29.98;11.55;;;;;;;;;;5037481;28;20090;-66
2021/09/25 07:12:48;;;;;;;28.67;11.82;;;;;;;;;;5024184;28;20168;-67
2021/09/25 07:15:15;;;;;;;27.30;10.73;;;;;;;;;;5021849;28;20075;-66
2021/09/25 07:17:41;;;;;;;20.92;10.68;;;;;;;;;;5021694;28;20381;-65
2021/09/25 07:20:08;;;;;;;25.35;10.75;;;;;;;;;;5039773;28;20121;-65
2021/09/25 07:22:35;;;;;;;34.05;12.05;;;;;;;;;;5041323;28;20070;-65
2021/09/25 07:25:01;;;;;;;26.65;12.10;;;;;;;;;;5038069;28;20051;-65
2021/09/25 07:27:27;;;;;;;58.03;12.65;;;;;;;;;;5035426;28;20095;-65
2021/09/25 07:29:53;;;;;;;20.08;10.82;;;;;;;;;;5039342;28;20045;-65
2021/09/25 07:32:20;;;;;;;26.38;11.23;;;;;;;;;;5022192;28;20405;-65
2021/09/25 07:34:46;;;;;;;24.02;11.30;;;;;;;;;;5038847;28;20037;-65
2021/09/25 07:37:13;;;;;;;26.02;11.98;;;;;;;;;;5043174;28;20045;-66
2021/09/25 07:39:40;;;;;;;34.53;17.60;;;;;;;;;;5037258;28;20048;-65
2021/09/25 07:42:06;;;;;;;21.80;11.07;;;;;;;;;;5027280;28;20049;-65
2021/09/25 07:44:34;;;;;;;21.05;11.45;;;;;;;;;;5035861;28;20124;-65
2021/09/25 07:47:00;;;;;;;25.65;11.45;;;;;;;;;;5022125;28;20155;-65
2021/09/25 07:49:27;;;;;;;22.55;9.68;;;;;;;;;;5009470;28;20033;-65
2021/09/25 07:51:53;;;;;;;19.70;10.73;;;;;;;;;;5043042;28;20191;-65
2021/09/25 07:54:19;;;;;;;26.40;10.02;;;;;;;;;;5038973;28;20190;-65
2021/09/25 07:56:45;;;;;;;24.17;10.35;;;;;;;;;;5041742;28;20536;-65
2021/09/25 07:59:11;;;;;;;18.10;9.00;;;;;;;;;;5041396;28;20045;-67
2021/09/25 08:01:38;;;;;;;40.45;15.27;;;;;;;;;;5041875;28;20045;-65
2021/09/25 08:04:04;;;;;;;29.30;11.10;;;;;;;;;;5039107;28;20487;-65
2021/09/25 08:06:30;;;;;;;19.73;9.25;;;;;;;;;;5038153;28;20049;-66
2021/09/25 08:08:56;;;;;;;19.52;9.48;;;;;;;;;;5042135;28;20073;-66
2021/09/25 08:11:22;;;;;;;18.10;9.02;;;;;;;;;;5037315;28;20048;-65
2021/09/25 08:13:48;;;;;;;19.98;8.85;;;;;;;;;;5008998;28;20389;-66
2021/09/25 08:16:15;;;;;;;23.33;10.60;;;;;;;;;;5026622;28;20067;-65
2021/09/25 08:18:41;;;;;;;18.38;11.07;;;;;;;;;;5043716;28;20041;-65
2021/09/25 08:21:07;;;;;;;18.63;10.20;;;;;;;;;;5043773;28;20068;-65
2021/09/25 08:23:33;;;;;;;24.05;10.05;;;;;;;;;;5044104;28;20079;-66
2021/09/25 08:26:00;;;;;;;23.27;11.23;;;;;;;;;;5040680;28;20045;-65
2021/09/25 08:28:26;;;;;;;18.52;10.05;;;;;;;;;;5040273;28;20405;-65
2021/09/25 08:30:52;;;;;;;23.63;10.77;;;;;;;;;;5039443;28;20037;-65
2021/09/25 08:33:19;;;;;;;21.52;10.15;;;;;;;;;;5046038;28;20091;-65
2021/09/25 08:35:45;;;;;;;21.23;9.57;;;;;;;;;;5044943;28;20071;-66
2021/09/25 08:38:11;;;;;;;24.45;10.15;;;;;;;;;;5043123;28;20489;-65
2021/09/25 08:40:37;;;;;;;21.38;9.55;;;;;;;;;;5026062;28;20045;-65
2021/09/25 08:43:04;;;;;;;18.90;9.07;;;;;;;;;;5041440;28;20110;-65
2021/09/25 08:45:30;;;;;;;21.65;9.52;;;;;;;;;;5045721;28;20397;-66
2021/09/25 08:47:57;;;;;;;20.30;9.63;;;;;;;;;;5041723;28;20059;-65
2021/09/25 08:50:23;;;;;;;23.42;8.73;;;;;;;;;;5048451;28;20037;-65
2021/09/25 08:52:50;;;;;;;25.48;8.50;;;;;;;;;;5024535;28;20053;-65
2021/09/25 08:55:16;;;;;;;15.45;8.23;;;;;;;;;;5026388;28;20053;-66
2021/09/25 08:57:42;;;;;;;17.05;8.30;;;;;;;;;;5028767;28;20496;-65
2021/09/25 09:00:27;;;;;;;18.17;8.77;;;;;;;;;;5030644;28;20045;-65
2021/09/25 09:02:53;;;;;;;15.35;6.95;;;;;;;;;;5025902;28;20045;-65
2021/09/25 09:05:30;;;;;;;16.58;7.85;;;;;;;;;;5029471;28;20128;-65
2021/09/25 09:07:59;;;;;;;13.98;7.05;;;;;;;;;;5047505;28;20037;-65
2021/09/25 09:10:29;;;;;;;15.20;7.10;;;;;;;;;;5030871;28;20507;-65
2021/09/25 09:12:55;;;;;;;13.15;6.38;;;;;;;;;;5047027;28;20487;-65
2021/09/25 09:15:30;;;;;;;14.73;5.70;;;;;;;;;;5046570;28;20048;-65
2021/09/25 09:17:56;;;;;;;12.73;5.53;;;;;;;;;;5046138;28;20045;-65
2021/09/25 09:20:22;;;;;;;12.23;5.13;;;;;;;;;;5015138;28;20380;-65
2021/09/25 09:22:48;;;;;;;11.57;5.47;;;;;;;;;;5044693;28;20493;-65
2021/09/25 09:25:14;;;;;;;11.88;5.55;;;;;;;;;;5044547;28;22202;-65
2021/09/25 09:27:44;;;;;;;11.88;5.63;;;;;;;;;;5043403;28;20120;-65
2021/09/25 09:30:11;;;;;;;17.98;5.03;;;;;;;;;;5026350;28;20338;-65
2021/09/25 09:32:45;;;;;;;14.82;4.78;;;;;;;;;;5047349;28;20041;-65
2021/09/25 09:35:14;;;;;;;11.38;4.80;;;;;;;;;;5046125;28;20499;-65
2021/09/25 09:37:40;;;;;;;11.45;5.70;;;;;;;;;;5047496;28;20044;-65
2021/09/25 09:40:07;;;;;;;15.25;5.55;;;;;;;;;;5047524;28;20120;-65
2021/09/25 09:42:42;;;;;;;12.63;5.50;;;;;;;;;;5049095;28;20048;-65
2021/09/25 09:45:09;;;;;;;13.18;5.15;;;;;;;;;;5046678;28;20082;-65
2021/09/25 09:47:45;;;;;;;13.30;5.10;;;;;;;;;;5046729;28;20492;-65
2021/09/25 09:50:11;;;;;;;9.73;5.43;;;;;;;;;;5045214;28;20045;-65
2021/09/25 09:52:37;;;;;;;11.00;4.80;;;;;;;;;;5044340;28;20044;-65
2021/09/25 09:55:06;;;;;;;9.30;4.72;;;;;;;;;;5046727;28;20633;-65
2021/09/25 09:57:33;;;;;;;9.93;4.50;;;;;;;;;;5043345;28;20045;-65
2021/09/25 10:00:00;;;;;;;12.85;4.47;;;;;;;;;;5026166;28;20144;-65
2021/09/25 10:02:26;;;;;;;11.45;4.32;;;;;;;;;;5045648;28;20721;-65
2021/09/25 10:04:53;;;;;;;9.20;3.53;;;;;;;;;;5041988;28;20579;-65
2021/09/25 10:07:19;;;;;;;8.75;3.70;;;;;;;;;;5046359;28;20044;-65
2021/09/25 10:09:45;;;;;;;9.25;4.70;;;;;;;;;;5046891;28;20073;-65
2021/09/25 10:12:13;;;;;;;11.35;4.38;;;;;;;;;;5013113;28;20048;-65
2021/09/25 10:14:40;;;;;;;12.27;4.70;;;;;;;;;;5040759;28;20044;-65
2021/09/25 10:17:08;;;;;;;14.27;5.22;;;;;;;;;;5048210;28;20048;-65
2021/09/25 10:19:36;;;;;;;7.28;3.42;;;;;;;;;;5044156;28;20037;-65
2021/09/25 10:22:14;;;;;;;4.95;2.45;;;;;;;;;;5047586;28;20120;-65
2021/09/25 10:24:46;;;;;;;8.07;3.13;;;;;;;;;;5024897;28;20065;-65
2021/09/25 10:27:12;;;;;;;10.48;3.05;;;;;;;;;;5045439;28;20041;-65
2021/09/25 10:29:46;;;;;;;8.05;3.30;;;;;;;;;;5044184;28;20500;-65
2021/09/25 10:32:19;;;;;;;8.43;4.07;;;;;;;;;;5044894;28;20037;-65
2021/09/25 10:35:04;;;;;;;9.15;3.40;;;;;;;;;;5046375;28;20044;-65
2021/09/25 10:37:33;;;;;;;7.95;3.60;;;;;;;;;;5044155;28;20048;-65
2021/09/25 10:39:59;;;;;;;6.80;3.45;;;;;;;;;;5037248;28;20083;-65
2021/09/25 10:42:41;;;;;;;7.53;3.25;;;;;;;;;;5043567;28;20084;-65
2021/09/25 10:45:12;;;;;;;8.80;3.40;;;;;;;;;;5044901;28;20087;-65
2021/09/25 10:47:39;;;;;;;8.60;3.50;;;;;;;;;;5044419;28;20052;-65
2021/09/25 10:50:16;;;;;;;8.35;3.45;;;;;;;;;;5029122;28;20480;-65
2021/09/25 10:52:51;;;;;;;10.65;3.50;;;;;;;;;;5045029;28;20064;-65
2021/09/25 10:55:20;;;;;;;8.25;2.90;;;;;;;;;;5044468;28;20076;-65
2021/09/25 10:58:05;;;;;;;7.88;2.67;;;;;;;;;;5027485;28;20065;-65
2021/09/25 11:00:32;;;;;;;7.00;2.83;;;;;;;;;;5047290;28;20125;-65
2021/09/25 11:02:58;;;;;;;7.13;2.90;;;;;;;;;;5046744;28;20125;-66
2021/09/25 11:05:44;;;;;;;6.25;2.70;;;;;;;;;;5047650;28;20041;-65
2021/09/25 11:08:15;;;;;;;6.97;2.95;;;;;;;;;;5045965;28;20142;-65
2021/09/25 11:11:07;;;;;;;10.75;3.03;;;;;;;;;;5045732;28;20052;-65
2021/09/25 11:13:53;;;;;;;6.07;2.67;;;;;;;;;;5028270;28;20037;-65
2021/09/25 11:16:41;;;;;;;8.90;2.78;;;;;;;;;;5028031;28;20103;-65
2021/09/25 11:19:09;;;;;;;6.68;3.35;;;;;;;;;;5024887;28;20041;-66
2021/09/25 11:21:35;;;;;;;8.18;3.17;;;;;;;;;;5027927;28;20480;-65
2021/09/25 11:24:02;;;;;;;5.82;3.40;;;;;;;;;;5026009;28;20047;-65
2021/09/25 11:26:29;;;;;;;7.70;3.75;;;;;;;;;;5026055;28;20044;-65
2021/09/25 11:29:07;;;;;;;6.18;3.30;;;;;;;;;;5024105;28;20037;-65
2021/09/25 11:31:34;;;;;;;6.10;3.20;;;;;;;;;;5043054;28;20048;-69
2021/09/25 11:34:19;;;;;;;9.52;3.10;;;;;;;;;;5043589;28;20076;-66
2021/09/25 11:36:53;;;;;;;9.05;2.95;;;;;;;;;;5029326;28;20056;-68
2021/09/25 11:39:22;;;;;;;5.20;2.30;;;;;;;;;;5044358;28;20134;-66
2021/09/25 11:42:08;;;;;;;6.82;2.75;;;;;;;;;;5027592;28;20088;-66
2021/09/25 11:44:43;;;;;;;6.57;3.30;;;;;;;;;;5043990;28;20637;-66
2021/09/25 11:47:20;;;;;;;7.50;3.42;;;;;;;;;;5009963;28;20067;-67
2021/09/25 11:49:47;;;;;;;8.73;3.75;;;;;;;;;;5025644;28;20033;-67
2021/09/25 11:52:13;;;;;;;5.90;2.92;;;;;;;;;;5040706;28;20048;-66
2021/09/25 11:54:40;;;;;;;5.78;2.25;;;;;;;;;;5045153;28;20052;-66
2021/09/25 11:57:18;;;;;;;7.30;2.67;;;;;;;;;;5023852;28;20052;-66
2021/09/25 11:59:47;;;;;;;5.32;2.15;;;;;;;;;;5045597;28;20053;-66
2021/09/25 12:02:38;;;;;;;5.85;2.70;;;;;;;;;;5046571;28;20060;-67
2021/09/25 12:05:08;;;;;;;16.77;3.92;;;;;;;;;;5042744;28;20047;-66
2021/09/25 12:07:39;;;;;;;15.48;7.30;;;;;;;;;;5023589;28;20124;-66
2021/09/25 12:10:07;;;;;;;25.80;11.30;;;;;;;;;;5028744;28;20044;-67
2021/09/25 12:12:34;;;;;;;24.23;12.60;;;;;;;;;;5027833;28;20124;-66
2021/09/25 12:15:00;;;;;;;27.10;14.75;;;;;;;;;;5027183;28;20049;-66
2021/09/25 12:17:26;;;;;;;27.70;16.13;;;;;;;;;;5045354;28;20041;-66
2021/09/25 12:19:52;;;;;;;30.52;13.73;;;;;;;;;;5043827;28;20095;-66
2021/09/25 12:22:20;;;;;;;27.08;15.00;;;;;;;;;;5049857;28;20041;-66
2021/09/25 12:24:46;;;;;;;27.20;14.88;;;;;;;;;;5030548;28;20041;-67
2021/09/25 12:27:13;;;;;;;28.02;15.45;;;;;;;;;;5049431;28;20123;-66
2021/09/25 12:29:39;;;;;;;34.13;15.23;;;;;;;;;;5031408;28;20132;-66
2021/09/25 12:32:05;;;;;;;30.33;15.23;;;;;;;;;;5047733;28;20072;-67
2021/09/25 12:34:31;;;;;;;29.67;15.57;;;;;;;;;;5049380;28;20043;-66
2021/09/25 12:36:59;;;;;;;25.38;14.25;;;;;;;;;;5049304;28;20102;-66
2021/09/25 12:39:28;;;;;;;31.35;14.52;;;;;;;;;;5048409;28;20425;-66
2021/09/25 12:41:55;;;;;;;25.83;15.50;;;;;;;;;;5048916;28;20040;-69
2021/09/25 12:44:23;;;;;;;24.42;14.48;;;;;;;;;;5047400;28;20083;-71
2021/09/25 12:46:51;;;;;;;24.92;13.50;;;;;;;;;;5050129;28;20045;-72
2021/09/25 12:49:17;;;;;;;31.73;15.23;;;;;;;;;;5033113;28;20408;-72
2021/09/25 12:51:47;;;;;;;30.15;15.02;;;;;;;;;;5051027;28;20043;-72
2021/09/25 12:54:14;;;;;;;32.25;16.90;;;;;;;;;;5031979;28;20045;-72
2021/09/25 12:56:45;;;;;;;29.67;16.42;;;;;;;;;;5032616;28;20409;-72
2021/09/25 12:59:12;;;;;;;34.42;15.82;;;;;;;;;;5033814;28;20504;-72
2021/09/25 13:01:41;;;;;;;30.55;17.08;;;;;;;;;;5035730;28;20053;-72
2021/09/25 13:04:19;;;;;;;29.67;16.60;;;;;;;;;;5036480;28;20139;-72
2021/09/25 13:06:46;;;;;;;33.03;16.80;;;;;;;;;;5035854;28;20046;-72
2021/09/25 13:09:12;;;;;;;33.55;17.23;;;;;;;;;;5054367;28;20404;-72
2021/09/25 13:11:38;;;;;;;35.10;17.13;;;;;;;;;;5054243;28;20553;-72
2021/09/25 13:14:06;;;;;;;33.60;17.27;;;;;;;;;;5035953;28;20409;-72
2021/09/25 13:16:32;;;;;;;35.17;17.25;;;;;;;;;;5054096;28;20055;-72
2021/09/25 13:18:59;;;;;;;35.55;17.40;;;;;;;;;;5036470;28;20404;-72
2021/09/25 13:21:26;;;;;;;35.42;17.90;;;;;;;;;;5018870;28;20053;-72
2021/09/25 13:24:00;;;;;;;35.33;18.08;;;;;;;;;;5053918;28;20041;-72
2021/09/25 13:26:26;;;;;;;;;;;;;;;;;;5054707;28;20129;-72
2021/09/25 13:28:52;;;;;;;38.55;17.88;;;;;;;;;;5051705;28;20356;-72
2021/09/25 13:31:18;;;;;;;43.10;19.17;;;;;;;;;;5054122;28;20134;-72
2021/09/25 13:33:44;;;;;;;41.33;19.40;;;;;;;;;;5053821;28;20088;-72
2021/09/25 13:36:10;;;;;;;32.47;16.13;;;;;;;;;;5052982;28;20330;-72
2021/09/25 13:38:36;;;;;;;30.63;15.32;;;;;;;;;;5035795;28;20049;-72
2021/09/25 13:41:02;;;;;;;27.65;14.68;;;;;;;;;;5053725;28;20041;-72
2021/09/25 13:43:29;;;;;;;30.45;14.02;;;;;;;;;;5035319;28;20075;-72
2021/09/25 13:45:55;;;;;;;23.77;14.10;;;;;;;;;;5035888;28;20084;-72
2021/09/25 13:48:21;;;;;;;28.52;13.10;;;;;;;;;;5032462;28;20046;-72
2021/09/25 13:50:47;;;;;;;21.95;11.93;;;;;;;;;;5047392;28;20041;-72
2021/09/25 13:53:13;;;;;;;27.35;13.90;;;;;;;;;;5035665;28;20045;-72
2021/09/25 13:55:40;;;;;;;29.48;15.07;;;;;;;;;;5053252;28;20562;-72
2021/09/25 13:58:06;;;;;;;26.08;13.80;;;;;;;;;;5034805;28;20092;-72
2021/09/25 14:00:32;;;;;;;30.55;13.05;;;;;;;;;;5053471;28;20429;-72
2021/09/25 14:02:58;;;;;;;26.40;12.27;;;;;;;;;;5052524;28;20137;-72
2021/09/25 14:05:27;;;;;;;23.90;12.68;;;;;;;;;;5053267;28;20481;-72
2021/09/25 14:07:53;;;;;;;27.40;13.45;;;;;;;;;;5053263;28;20052;-72
2021/09/25 14:10:20;;;;;;;27.02;14.32;;;;;;;;;;5034307;28;20053;-72
2021/09/25 14:12:46;;;;;;;29.02;14.43;;;;;;;;;;5035343;28;20083;-72
2021/09/25 14:15:13;;;;;;;32.10;15.35;;;;;;;;;;5035085;28;20060;-72
2021/09/25 14:17:39;;;;;;;29.60;14.68;;;;;;;;;;5034125;28;20089;-72
2021/09/25 14:20:06;;;;;;;33.70;15.23;;;;;;;;;;5053018;28;20393;-72
2021/09/25 14:22:33;;;;;;;30.00;14.68;;;;;;;;;;5053197;28;20436;-72
2021/09/25 14:25:01;;;;;;;34.28;15.93;;;;;;;;;;5017750;28;20503;-72